createdAt,value
2017-12-08T00:02:10.159Z,99.10
2017-12-08T00:04:39.566Z,97.90
2017-12-08T00:07:07.766Z,97.70
2017-12-08T00:09:35.203Z,97.70
2017-12-08T00:12:02.671Z,97.20
2017-12-08T00:14:30.114Z,97.30
2017-12-08T00:16:57.553Z,97.40
2017-12-08T00:19:25.859Z,97.20
2017-12-08T00:21:53.297Z,97.20
2017-12-08T00:24:21.549Z,97.70
2017-12-08T00:26:49.022Z,97.60
2017-12-08T00:29:17.235Z,97.50
2017-12-08T00:31:44.909Z,97.50
2017-12-08T00:34:12.410Z,96.80
2017-12-08T00:36:40.652Z,96.20
2017-12-08T00:39:08.255Z,96.20
2017-12-08T00:41:35.914Z,96.40
2017-12-08T00:44:04.189Z,96.00
2017-12-08T00:46:32.419Z,96.20
2017-12-08T00:48:59.928Z,96.20
2017-12-08T00:51:28.178Z,96.40
2017-12-08T00:53:55.642Z,96.40
2017-12-08T00:56:23.096Z,96.00
2017-12-08T00:58:50.560Z,97.00
2017-12-08T01:01:18.058Z,96.50
2017-12-08T01:03:45.530Z,96.70
2017-12-08T01:06:12.990Z,97.80
2017-12-08T01:08:40.445Z,98.00
2017-12-08T01:11:07.980Z,96.80
2017-12-08T01:13:36.201Z,97.20
2017-12-08T01:16:03.666Z,97.20
2017-12-08T01:18:31.125Z,96.50
2017-12-08T01:20:58.579Z,96.40
2017-12-08T01:23:26.044Z,96.60
2017-12-08T01:25:53.473Z,96.30
2017-12-08T01:28:20.983Z,96.80
2017-12-08T01:30:48.401Z,97.30
2017-12-08T01:33:15.881Z,97.30
2017-12-08T01:35:43.320Z,97.60
2017-12-08T01:38:10.771Z,97.60
2017-12-08T01:40:38.233Z,97.30
2017-12-08T01:43:05.723Z,96.10
2017-12-08T01:45:33.182Z,96.20
2017-12-08T01:48:00.641Z,96.80
2017-12-08T01:50:28.093Z,96.90
2017-12-08T01:52:55.554Z,97.50
2017-12-08T01:55:23.003Z,97.80
2017-12-08T01:57:50.474Z,97.80
2017-12-08T02:00:18.726Z,97.70
2017-12-08T02:02:46.193Z,97.70
2017-12-08T02:05:13.662Z,98.00
2017-12-08T02:07:41.141Z,98.20
2017-12-08T02:10:10.283Z,97.10
2017-12-08T02:12:37.788Z,97.00
2017-12-08T02:15:05.233Z,97.20
2017-12-08T02:17:32.710Z,97.30
2017-12-08T02:20:00.935Z,97.50
2017-12-08T02:22:28.395Z,97.50
2017-12-08T02:24:55.840Z,97.10
2017-12-08T02:27:23.290Z,96.80
2017-12-08T02:29:50.722Z,96.50
2017-12-08T02:32:18.180Z,96.60
2017-12-08T02:34:46.362Z,96.40
2017-12-08T02:37:13.810Z,96.40
2017-12-08T02:39:42.051Z,95.90
2017-12-08T02:42:09.838Z,95.90
2017-12-08T02:44:38.058Z,96.40
2017-12-08T02:47:05.559Z,96.40
2017-12-08T02:49:33.010Z,96.70
2017-12-08T02:52:00.487Z,97.10
2017-12-08T02:54:27.946Z,97.20
2017-12-08T02:56:55.406Z,97.50
2017-12-08T02:59:22.881Z,97.10
2017-12-08T03:01:50.322Z,97.20
2017-12-08T03:04:17.782Z,96.50
2017-12-08T03:06:45.209Z,96.30
2017-12-08T03:09:12.650Z,96.00
2017-12-08T03:11:40.104Z,96.30
2017-12-08T03:14:07.568Z,96.30
2017-12-08T03:16:35.054Z,96.40
2017-12-08T03:19:02.505Z,96.30
2017-12-08T03:21:29.999Z,96.10
2017-12-08T03:23:57.476Z,96.00
2017-12-08T03:26:24.918Z,95.50
2017-12-08T03:28:52.351Z,95.70
2017-12-08T03:31:20.754Z,95.80
2017-12-08T03:33:48.189Z,95.80
2017-12-08T03:36:16.382Z,95.70
2017-12-08T03:38:43.840Z,95.70
2017-12-08T03:41:12.026Z,96.20
2017-12-08T03:43:39.483Z,96.20
2017-12-08T03:46:06.921Z,96.00
2017-12-08T03:48:35.428Z,95.70
2017-12-08T03:51:03.672Z,95.80
2017-12-08T03:53:31.885Z,95.20
2017-12-08T03:55:59.313Z,95.20
2017-12-08T03:58:27.599Z,96.00
2017-12-08T04:00:55.070Z,96.00
2017-12-08T04:03:22.515Z,95.50
2017-12-08T04:05:49.969Z,96.10
2017-12-08T04:08:18.372Z,96.20
2017-12-08T04:10:45.833Z,96.30
2017-12-08T04:13:13.295Z,95.40
2017-12-08T04:15:40.725Z,95.70
2017-12-08T04:18:08.212Z,95.60
2017-12-08T04:20:35.660Z,95.00
2017-12-08T04:23:03.114Z,95.40
2017-12-08T04:25:30.597Z,95.40
2017-12-08T04:27:58.065Z,95.10
2017-12-08T04:30:25.489Z,95.50
2017-12-08T04:32:52.948Z,94.80
2017-12-08T04:35:20.428Z,94.80
2017-12-08T04:37:47.873Z,95.50
2017-12-08T04:40:16.163Z,95.10
2017-12-08T04:42:43.622Z,95.60
2017-12-08T04:45:11.085Z,95.50
2017-12-08T04:47:38.590Z,95.20
2017-12-08T04:50:06.892Z,95.50
2017-12-08T04:52:34.357Z,95.40
2017-12-08T04:55:01.817Z,95.70
2017-12-08T04:57:29.292Z,95.80
2017-12-08T04:59:56.759Z,95.00
2017-12-08T05:02:24.212Z,94.80
2017-12-08T05:04:51.673Z,94.40
2017-12-08T05:07:19.109Z,95.20
2017-12-08T05:09:46.593Z,94.90
2017-12-08T05:12:14.034Z,95.10
2017-12-08T05:14:41.493Z,95.10
2017-12-08T05:17:08.961Z,94.00
2017-12-08T05:19:36.613Z,94.70
2017-12-08T05:22:04.093Z,94.70
2017-12-08T05:24:31.533Z,94.50
2017-12-08T05:26:59.235Z,94.40
2017-12-08T05:29:27.487Z,94.00
2017-12-08T05:31:54.932Z,94.00
2017-12-08T05:34:23.158Z,94.00
2017-12-08T05:36:51.394Z,93.70
2017-12-08T05:39:18.865Z,93.70
2017-12-08T05:41:46.295Z,93.70
2017-12-08T05:44:13.778Z,93.80
2017-12-08T05:46:41.250Z,94.20
2017-12-08T05:49:08.680Z,94.00
2017-12-08T05:51:36.138Z,93.60
2017-12-08T05:54:03.625Z,94.40
2017-12-08T05:56:31.856Z,94.10
2017-12-08T05:58:59.341Z,94.00
2017-12-08T06:01:26.795Z,93.60
2017-12-08T06:03:54.253Z,93.70
2017-12-08T06:06:21.708Z,93.80
2017-12-08T06:08:50.025Z,94.20
2017-12-08T06:11:17.470Z,94.40
2017-12-08T06:13:45.710Z,94.60
2017-12-08T06:16:13.202Z,94.60
2017-12-08T06:18:41.466Z,94.90
2017-12-08T06:21:10.599Z,94.90
2017-12-08T06:23:38.071Z,94.90
2017-12-08T06:26:05.514Z,94.90
2017-12-08T06:28:32.987Z,95.00
2017-12-08T06:31:00.414Z,95.20
2017-12-08T06:33:28.612Z,94.60
2017-12-08T06:35:56.831Z,94.30
2017-12-08T06:38:24.290Z,94.30
2017-12-08T06:40:51.788Z,94.60
2017-12-08T06:43:19.985Z,94.30
2017-12-08T06:45:47.461Z,94.20
2017-12-08T06:48:15.007Z,94.20
2017-12-08T06:50:42.461Z,94.00
2017-12-08T06:53:10.406Z,94.50
2017-12-08T06:55:37.866Z,94.40
2017-12-08T06:58:05.357Z,94.30
2017-12-08T07:00:32.881Z,93.60
2017-12-08T07:03:00.323Z,93.40
2017-12-08T07:05:28.522Z,94.00
2017-12-08T07:07:56.005Z,94.00
2017-12-08T07:10:23.462Z,93.70
2017-12-08T07:12:50.979Z,93.90
2017-12-08T07:15:19.193Z,93.70
2017-12-08T07:17:46.606Z,93.70
2017-12-08T07:20:14.901Z,93.70
2017-12-08T07:22:42.405Z,93.70
2017-12-08T07:25:11.272Z,94.20
2017-12-08T07:27:38.748Z,93.80
2017-12-08T07:30:06.396Z,93.70
2017-12-08T07:32:33.828Z,93.70
2017-12-08T07:35:01.261Z,93.40
2017-12-08T07:37:29.485Z,93.40
2017-12-08T07:39:56.946Z,93.30
2017-12-08T07:42:24.413Z,93.50
2017-12-08T07:44:51.860Z,93.30
2017-12-08T07:47:19.293Z,93.70
2017-12-08T07:49:46.764Z,93.80
2017-12-08T07:52:14.213Z,93.90
2017-12-08T07:54:41.669Z,93.50
2017-12-08T07:57:09.131Z,92.80
2017-12-08T07:59:36.589Z,92.20
2017-12-08T08:02:04.053Z,92.00
2017-12-08T08:04:31.516Z,91.70
2017-12-08T08:06:59.018Z,91.50
2017-12-08T08:09:26.533Z,91.60
2017-12-08T08:11:53.949Z,91.30
2017-12-08T08:14:21.400Z,91.80
2017-12-08T08:16:48.860Z,91.80
2017-12-08T08:19:16.314Z,92.50
2017-12-08T08:21:43.777Z,93.00
2017-12-08T08:24:11.243Z,92.70
2017-12-08T08:26:38.701Z,91.90
2017-12-08T08:29:06.148Z,92.10
2017-12-08T08:31:33.604Z,91.80
2017-12-08T08:34:01.851Z,92.80
2017-12-08T08:36:29.302Z,92.80
2017-12-08T08:38:56.777Z,92.60
2017-12-08T08:41:24.253Z,92.10
2017-12-08T08:43:51.712Z,92.10
2017-12-08T08:46:19.934Z,91.60
2017-12-08T08:48:47.439Z,91.80
2017-12-08T08:51:14.904Z,91.60
2017-12-08T08:53:44.004Z,90.90
2017-12-08T08:56:12.255Z,90.40
2017-12-08T08:58:39.761Z,90.30
2017-12-08T09:01:08.005Z,89.10
2017-12-08T09:03:35.473Z,88.90
2017-12-08T09:06:03.685Z,88.00
2017-12-08T09:08:31.190Z,87.90
2017-12-08T09:10:59.471Z,87.40
2017-12-08T09:13:26.937Z,85.50
2017-12-08T09:15:55.153Z,83.60
2017-12-08T09:18:22.606Z,83.50
2017-12-08T09:20:50.981Z,84.90
2017-12-08T09:23:18.404Z,82.90
2017-12-08T09:25:46.597Z,84.60
2017-12-08T09:28:14.801Z,85.40
2017-12-08T09:30:42.233Z,85.40
2017-12-08T09:33:10.637Z,85.00
2017-12-08T09:35:38.082Z,84.70
2017-12-08T09:38:05.546Z,83.60
2017-12-08T09:40:32.997Z,82.50
2017-12-08T09:43:00.466Z,82.30
2017-12-08T09:45:27.905Z,83.10
2017-12-08T09:47:55.390Z,85.20
2017-12-08T09:50:23.164Z,85.30
2017-12-08T09:52:51.541Z,85.80
2017-12-08T09:55:18.988Z,85.50
2017-12-08T09:57:46.413Z,86.70
2017-12-08T10:00:14.600Z,87.20
2017-12-08T10:02:42.037Z,87.10
2017-12-08T10:05:11.167Z,89.20
2017-12-08T10:07:38.781Z,89.20
2017-12-08T10:10:06.276Z,90.10
2017-12-08T10:12:34.465Z,92.00
2017-12-08T10:15:01.930Z,92.00
2017-12-08T10:17:29.382Z,92.60
2017-12-08T10:19:56.837Z,92.40
2017-12-08T10:22:24.281Z,93.50
2017-12-08T10:24:51.737Z,92.10
2017-12-08T10:27:19.220Z,92.60
2017-12-08T10:29:46.645Z,92.60
2017-12-08T10:32:14.106Z,94.30
2017-12-08T10:34:41.558Z,94.10
2017-12-08T10:37:09.021Z,94.20
2017-12-08T10:39:37.225Z,93.70
2017-12-08T10:42:04.681Z,93.70
2017-12-08T10:44:32.129Z,93.20
2017-12-08T10:46:59.587Z,93.00
2017-12-08T10:49:27.045Z,94.00
2017-12-08T10:51:54.519Z,93.30
2017-12-08T10:54:21.959Z,93.60
2017-12-08T10:56:49.440Z,92.70
2017-12-08T10:59:16.900Z,93.30
2017-12-08T11:01:44.344Z,93.10
2017-12-08T11:04:11.823Z,92.60
2017-12-08T11:06:39.285Z,93.00
2017-12-08T11:09:06.723Z,93.60
2017-12-08T11:11:34.909Z,93.00
2017-12-08T11:14:02.349Z,92.90
2017-12-08T11:16:29.814Z,93.00
2017-12-08T11:18:57.277Z,93.40
2017-12-08T11:21:24.764Z,93.70
2017-12-08T11:23:52.194Z,93.40
2017-12-08T11:26:19.664Z,93.60
2017-12-08T11:28:47.126Z,93.60
2017-12-08T11:31:14.585Z,93.70
2017-12-08T11:33:42.041Z,94.40
2017-12-08T11:36:09.506Z,94.10
2017-12-08T11:38:37.029Z,93.60
2017-12-08T11:41:04.485Z,94.70
2017-12-08T11:43:31.991Z,94.90
2017-12-08T11:45:59.450Z,95.10
2017-12-08T11:48:26.921Z,94.90
2017-12-08T11:50:54.351Z,95.20
2017-12-08T11:53:21.828Z,95.30
2017-12-08T11:55:49.271Z,95.70
2017-12-08T11:58:16.745Z,95.30
2017-12-08T12:00:44.210Z,95.70
2017-12-08T12:03:11.669Z,95.80
2017-12-08T12:05:39.104Z,95.80
2017-12-08T12:08:06.560Z,96.00
2017-12-08T12:10:34.029Z,96.20
2017-12-08T12:13:01.478Z,96.60
2017-12-08T12:15:28.958Z,96.10
2017-12-08T12:17:57.838Z,96.30
2017-12-08T12:20:27.236Z,96.00
2017-12-08T12:22:55.495Z,97.00
2017-12-08T12:25:22.951Z,96.60
2017-12-08T12:27:50.408Z,96.50
2017-12-08T12:30:17.865Z,97.20
2017-12-08T12:32:45.337Z,97.60
2017-12-08T12:35:12.780Z,97.40
2017-12-08T12:37:40.269Z,97.10
2017-12-08T12:40:08.473Z,96.40
2017-12-08T12:42:35.918Z,96.40
2017-12-08T12:45:03.582Z,97.20
2017-12-08T12:47:31.018Z,97.40
2017-12-08T12:49:59.227Z,96.90
2017-12-08T12:52:26.672Z,96.90
2017-12-08T12:54:54.907Z,97.40
2017-12-08T12:57:22.368Z,97.40
2017-12-08T12:59:49.794Z,97.40
2017-12-08T13:02:17.242Z,96.80
2017-12-08T13:04:44.700Z,97.70
2017-12-08T13:07:12.158Z,97.80
2017-12-08T13:09:39.597Z,97.70
2017-12-08T13:12:07.050Z,96.50
2017-12-08T13:14:34.537Z,97.70
2017-12-08T13:17:01.978Z,97.80
2017-12-08T13:19:29.413Z,97.50
2017-12-08T13:21:56.911Z,97.50
2017-12-08T13:24:24.366Z,97.60
2017-12-08T13:26:51.831Z,98.30
2017-12-08T13:29:19.289Z,98.10
2017-12-08T13:31:46.743Z,97.30
2017-12-08T13:34:14.214Z,97.50
2017-12-08T13:36:41.681Z,97.00
2017-12-08T13:39:09.128Z,96.50
2017-12-08T13:41:36.578Z,96.20
2017-12-08T13:44:04.026Z,97.20
2017-12-08T13:46:31.477Z,96.90
2017-12-08T13:48:58.939Z,96.70
2017-12-08T13:51:26.424Z,96.80
2017-12-08T13:56:52.172Z,97.40
2017-12-08T13:59:19.586Z,96.90
2017-12-08T14:01:47.053Z,96.90
2017-12-08T14:04:14.543Z,96.50
2017-12-08T14:06:41.996Z,97.20
2017-12-08T14:09:09.461Z,96.90
2017-12-08T14:11:36.911Z,97.10
2017-12-08T14:14:05.074Z,97.30
2017-12-08T14:16:32.517Z,96.70
2017-12-08T14:18:59.980Z,95.60
2017-12-08T14:21:27.422Z,96.30
2017-12-08T14:23:54.880Z,95.90
2017-12-08T14:26:22.386Z,96.10
2017-12-08T14:28:49.829Z,95.70
2017-12-08T14:31:17.313Z,95.90
2017-12-08T14:33:44.749Z,97.00
2017-12-08T14:36:12.438Z,96.10
2017-12-08T14:38:39.873Z,96.50
2017-12-08T14:41:07.353Z,96.60
2017-12-08T14:43:34.790Z,96.10
2017-12-08T14:46:02.263Z,96.50
2017-12-08T14:48:29.736Z,96.90
2017-12-08T14:50:57.971Z,96.30
2017-12-08T14:53:25.441Z,96.20
2017-12-08T14:55:52.903Z,97.10
2017-12-08T14:58:20.360Z,96.60
2017-12-08T15:00:47.822Z,96.30
2017-12-08T15:03:15.277Z,95.90
2017-12-08T15:05:42.742Z,95.70
2017-12-08T15:08:11.846Z,95.10
2017-12-08T15:10:40.089Z,94.70
2017-12-08T15:13:07.605Z,94.70
2017-12-08T15:15:35.055Z,95.10
2017-12-08T15:18:03.290Z,94.60
2017-12-08T15:20:30.749Z,94.60
2017-12-08T15:22:58.215Z,94.40
2017-12-08T15:25:25.697Z,95.00
2017-12-08T15:27:53.884Z,95.60
2017-12-08T15:30:21.328Z,95.50
2017-12-08T15:32:49.576Z,95.40
2017-12-08T15:35:17.041Z,95.30
2017-12-08T15:37:44.497Z,95.40
2017-12-08T15:40:13.113Z,95.60
2017-12-08T15:42:40.568Z,95.40
2017-12-08T15:45:08.054Z,95.80
2017-12-08T15:47:35.492Z,95.20
2017-12-08T15:50:03.661Z,95.40
2017-12-08T15:52:31.109Z,95.20
2017-12-08T15:54:59.321Z,96.20
2017-12-08T15:57:27.665Z,96.20
2017-12-08T15:59:55.868Z,96.10
2017-12-08T16:02:23.341Z,96.00
2017-12-08T16:04:50.797Z,96.10
2017-12-08T16:07:18.241Z,96.40
2017-12-08T16:09:45.690Z,95.70
2017-12-08T16:12:13.155Z,95.90
2017-12-08T16:14:40.610Z,96.30
2017-12-08T16:17:08.072Z,95.60
2017-12-08T16:19:35.530Z,95.30
2017-12-08T16:22:03.028Z,95.20
2017-12-08T16:24:30.470Z,96.00
2017-12-08T16:26:57.917Z,95.80
2017-12-08T16:29:25.390Z,96.10
2017-12-08T16:31:52.833Z,96.10
2017-12-08T16:34:20.316Z,96.00
2017-12-08T16:36:47.774Z,96.20
2017-12-08T16:39:15.221Z,95.40
2017-12-08T16:41:42.693Z,95.50
2017-12-08T16:44:10.152Z,95.60
2017-12-08T16:46:37.678Z,95.30
2017-12-08T16:49:05.192Z,96.30
2017-12-08T16:51:32.620Z,97.00
2017-12-08T16:54:00.082Z,96.30
2017-12-08T16:56:27.526Z,96.10
2017-12-08T16:58:54.998Z,95.90
2017-12-08T17:01:22.441Z,96.20
2017-12-08T17:03:49.915Z,96.10
2017-12-08T17:06:17.358Z,95.90
2017-12-08T17:08:44.810Z,95.90
2017-12-08T17:11:12.277Z,96.10
2017-12-08T17:13:39.740Z,96.10
2017-12-08T17:16:07.186Z,96.40
2017-12-08T17:18:34.638Z,96.20
2017-12-08T17:21:02.084Z,95.90
2017-12-08T17:23:29.563Z,95.80
2017-12-08T17:25:57.025Z,95.50
2017-12-08T17:28:24.466Z,95.50
2017-12-08T17:30:51.952Z,94.80
2017-12-08T17:33:19.407Z,95.20
2017-12-08T17:35:46.907Z,95.60
2017-12-08T17:38:14.397Z,95.60
2017-12-08T17:40:41.849Z,95.10
2017-12-08T17:43:09.296Z,94.80
2017-12-08T17:45:36.851Z,94.80
2017-12-08T17:48:04.292Z,94.80
2017-12-08T17:50:31.779Z,94.80
2017-12-08T17:52:59.229Z,95.40
2017-12-08T17:55:27.430Z,95.00
2017-12-08T17:57:54.898Z,95.00
2017-12-08T18:00:22.328Z,95.30
2017-12-08T18:02:49.805Z,95.20
2017-12-08T18:05:17.268Z,95.30
2017-12-08T18:07:44.730Z,94.20
2017-12-08T18:10:12.183Z,94.60
2017-12-08T18:12:40.410Z,94.20
2017-12-08T18:15:07.898Z,94.00
2017-12-08T18:17:35.374Z,93.90
2017-12-08T18:20:02.863Z,93.90
2017-12-08T18:22:31.088Z,94.10
2017-12-08T18:24:58.550Z,94.10
2017-12-08T18:27:26.039Z,93.40
2017-12-08T18:29:53.503Z,93.60
2017-12-08T18:32:21.775Z,93.70
2017-12-08T18:34:50.732Z,93.60
2017-12-08T18:37:18.589Z,93.50
2017-12-08T18:39:46.069Z,93.90
2017-12-08T18:42:13.553Z,93.10
2017-12-08T18:44:41.019Z,93.50
2017-12-08T18:47:08.485Z,94.00
2017-12-08T18:49:36.810Z,93.90
2017-12-08T18:52:04.285Z,93.80
2017-12-08T18:54:31.777Z,93.30
2017-12-08T18:56:59.214Z,93.30
2017-12-08T18:59:26.766Z,93.60
2017-12-08T19:01:54.230Z,92.80
2017-12-08T19:04:21.689Z,92.40
2017-12-08T19:06:49.154Z,92.40
2017-12-08T19:09:16.697Z,92.50
2017-12-08T19:11:44.242Z,92.50
2017-12-08T19:14:12.947Z,91.80
2017-12-08T19:16:40.462Z,91.80
2017-12-08T19:19:07.964Z,92.10
2017-12-08T19:21:35.430Z,92.20
2017-12-08T19:24:03.694Z,91.90
2017-12-08T19:26:31.189Z,91.60
2017-12-08T19:28:59.471Z,92.00
2017-12-08T19:31:26.935Z,92.00
2017-12-08T19:33:54.409Z,91.50
2017-12-08T19:36:21.870Z,91.30
2017-12-08T19:38:49.326Z,91.80
2017-12-08T19:41:16.785Z,91.70
2017-12-08T19:43:44.235Z,91.30
2017-12-08T19:46:12.100Z,91.80
2017-12-08T19:48:39.574Z,92.40
2017-12-08T19:51:07.128Z,93.30
2017-12-08T19:53:34.654Z,93.70
2017-12-08T19:56:03.052Z,95.20
2017-12-08T19:58:30.580Z,95.20
2017-12-08T20:00:58.074Z,95.80
2017-12-08T20:03:25.753Z,96.00
2017-12-08T20:05:53.229Z,96.80
2017-12-08T20:08:20.694Z,97.00
2017-12-08T20:10:48.177Z,97.40
2017-12-08T20:13:15.674Z,97.90
2017-12-08T20:15:43.125Z,99.10
2017-12-08T20:18:10.609Z,99.10
2017-12-08T20:20:38.049Z,98.90
2017-12-08T20:23:05.524Z,98.10
2017-12-08T20:25:32.997Z,98.40
2017-12-08T20:28:00.501Z,98.80
2017-12-08T20:30:28.797Z,98.20
2017-12-08T20:32:56.288Z,98.20
2017-12-08T20:35:23.806Z,98.50
2017-12-08T20:37:51.385Z,98.30
2017-12-08T20:40:18.851Z,98.70
2017-12-08T20:42:46.378Z,98.70
2017-12-08T20:45:14.598Z,97.90
2017-12-08T20:47:42.075Z,97.90
2017-12-08T20:50:09.582Z,98.70
2017-12-08T20:52:37.791Z,99.00
2017-12-08T20:55:05.262Z,99.00
2017-12-08T20:57:32.730Z,99.30
2017-12-08T21:00:01.002Z,99.30
2017-12-08T21:02:28.481Z,99.30
2017-12-08T21:04:56.729Z,98.70
2017-12-08T21:07:24.301Z,98.70
2017-12-08T21:09:51.830Z,99.30
2017-12-08T21:12:19.303Z,99.80
2017-12-08T21:14:46.793Z,99.90
2017-12-08T21:17:14.602Z,99.90
2017-12-08T21:19:43.033Z,99.90
2017-12-08T21:22:12.189Z,99.90
2017-12-08T21:24:39.670Z,99.90
2017-12-08T21:27:07.146Z,99.90
2017-12-08T21:29:34.591Z,98.90
2017-12-08T21:32:02.109Z,99.10
2017-12-08T21:34:29.646Z,98.70
2017-12-08T21:36:57.913Z,99.30
2017-12-08T21:39:26.203Z,99.60
2017-12-08T21:41:54.435Z,99.20
2017-12-08T21:44:21.895Z,99.20
2017-12-08T21:46:49.378Z,99.10
2017-12-08T21:49:17.618Z,98.60
2017-12-08T21:51:45.110Z,98.50
2017-12-08T21:54:13.407Z,98.40
2017-12-08T21:56:40.939Z,98.30
2017-12-08T21:59:08.477Z,98.60
2017-12-08T22:01:36.967Z,98.70
2017-12-08T22:04:04.553Z,98.80
2017-12-08T22:06:32.031Z,98.60
2017-12-08T22:08:59.489Z,98.70
2017-12-08T22:11:26.974Z,98.10
2017-12-08T22:13:54.452Z,99.50
2017-12-08T22:16:21.954Z,99.30
2017-12-08T22:18:50.255Z,98.70
2017-12-08T22:21:17.897Z,98.10
2017-12-08T22:23:45.379Z,97.30
2017-12-08T22:26:12.848Z,97.80
2017-12-08T22:28:40.490Z,97.70
2017-12-08T22:31:07.968Z,97.90
2017-12-08T22:33:35.531Z,97.30
2017-12-08T22:36:02.991Z,97.20
2017-12-08T22:38:30.663Z,97.50
2017-12-08T22:40:58.458Z,97.30
2017-12-08T22:43:26.230Z,97.90
2017-12-08T22:45:54.853Z,97.80
2017-12-08T22:48:22.548Z,97.80
2017-12-08T22:50:50.168Z,97.50
2017-12-08T22:53:17.778Z,97.10
2017-12-08T22:55:45.353Z,97.50
2017-12-08T22:58:13.573Z,98.50
2017-12-08T23:00:41.080Z,98.10
2017-12-08T23:03:08.828Z,98.50
2017-12-08T23:05:36.464Z,98.30
2017-12-08T23:08:04.790Z,98.50
2017-12-08T23:10:33.129Z,98.50
2017-12-08T23:13:00.831Z,98.30
2017-12-08T23:15:30.951Z,98.00
2017-12-08T23:17:58.437Z,98.30
2017-12-08T23:20:28.258Z,98.70
2017-12-08T23:22:56.706Z,98.70
2017-12-08T23:25:24.743Z,97.80
2017-12-08T23:27:52.990Z,98.00
2017-12-08T23:30:20.837Z,97.70
2017-12-08T23:32:50.096Z,98.20
2017-12-08T23:35:17.601Z,98.20
2017-12-08T23:37:46.595Z,98.30
2017-12-08T23:40:15.877Z,97.70
2017-12-08T23:42:43.430Z,97.60
2017-12-08T23:45:10.915Z,97.90
2017-12-08T23:47:38.424Z,98.40
2017-12-08T23:50:06.261Z,98.00
2017-12-08T23:52:33.749Z,97.80
2017-12-08T23:55:01.266Z,97.80
2017-12-08T23:57:28.726Z,98.30
2017-12-08T23:59:56.326Z,98.20
